Time;durP1;ratioP1;P1;durP2;ratioP2;P2;SDS_P1;SDS_P2;PMS_P1;PMS_P2;Temp;Humidity;BMP_temperature;BMP_pressure;BME280_temperature;BME280_humidity;BME280_pressure;Samples;Min_cycle;Max_cycle;Signal;HPM_P1;HPM_P2
2022/09/11 03:01:30;;;;;;;0.70;0.60;;;16.20;88.10;;;;;;5613105;23;20487;-75
2022/09/11 03:03:57;;;;;;;1.20;0.67;;;16.00;88.80;;;;;;4935893;29;20463;-75
2022/09/11 03:06:26;;;;;;;0.70;0.60;;;15.90;89.20;;;;;;4936005;29;20492;-74
2022/09/11 03:08:54;;;;;;;0.70;0.50;;;15.90;89.80;;;;;;4935940;29;20450;-75
2022/09/11 03:11:21;;;;;;;0.70;0.60;;;16.00;89.50;;;;;;4935995;29;20480;-75
2022/09/11 03:13:47;;;;;;;0.80;0.70;;;16.00;89.90;;;;;;4937291;29;20459;-75
2022/09/11 03:16:14;;;;;;;0.70;0.60;;;16.10;89.60;;;;;;4935819;29;20471;-75
2022/09/11 03:18:42;;;;;;;0.70;0.60;;;16.00;89.50;;;;;;4935823;29;20452;-75
2022/09/11 03:21:10;;;;;;;0.70;0.60;;;16.00;89.60;;;;;;4935392;29;20480;-75
2022/09/11 03:23:36;;;;;;;0.70;0.60;;;16.00;89.40;;;;;;4935745;29;20482;-75
2022/09/11 03:26:03;;;;;;;0.90;0.60;;;15.90;90.00;;;;;;4935648;29;20483;-75
2022/09/11 03:28:30;;;;;;;0.90;0.70;;;16.00;90.30;;;;;;4935723;29;20455;-74
2022/09/11 03:30:58;;;;;;;0.70;0.60;;;16.20;89.60;;;;;;4935642;29;20592;-75
2022/09/11 03:33:24;;;;;;;0.70;0.57;;;16.20;89.10;;;;;;4938471;29;20894;-75
2022/09/11 03:35:55;;;;;;;0.87;0.70;;;16.10;89.50;;;;;;4939123;29;20463;-74
2022/09/11 03:38:22;;;;;;;0.70;0.50;;;16.00;89.70;;;;;;4939123;29;20483;-75
2022/09/11 03:40:49;;;;;;;0.70;0.63;;;16.10;89.70;;;;;;4939023;29;20523;-75
2022/09/11 03:43:16;;;;;;;0.70;0.50;;;16.10;89.50;;;;;;4939041;29;20448;-75
2022/09/11 03:45:43;;;;;;;0.70;0.60;;;16.10;89.50;;;;;;4938832;29;21050;-75
2022/09/11 03:48:10;;;;;;;0.77;0.60;;;16.10;89.60;;;;;;4938636;29;20867;-75
2022/09/11 03:50:36;;;;;;;0.70;0.60;;;16.10;89.90;;;;;;4938857;29;20456;-75
2022/09/11 03:53:04;;;;;;;0.70;0.60;;;16.20;89.40;;;;;;4938516;29;20947;-75
2022/09/11 03:55:31;;;;;;;0.80;0.60;;;16.20;89.20;;;;;;4938824;29;20495;-75
2022/09/11 03:57:58;;;;;;;0.80;0.73;;;16.10;89.40;;;;;;4938727;29;20567;-75
2022/09/11 04:00:25;;;;;;;0.70;0.60;;;16.10;89.90;;;;;;4938621;29;20539;-75
2022/09/11 04:02:52;;;;;;;0.70;0.60;;;16.00;89.90;;;;;;4938532;29;20464;-75
2022/09/11 04:05:18;;;;;;;1.53;0.70;;;15.90;90.00;;;;;;4939104;29;20534;-75
2022/09/11 04:07:45;;;;;;;0.70;0.70;;;15.90;90.30;;;;;;4938578;29;20451;-75
2022/09/11 04:10:13;;;;;;;0.80;0.70;;;15.90;90.30;;;;;;4938568;29;20508;-75
2022/09/11 04:12:40;;;;;;;0.70;0.60;;;15.80;90.60;;;;;;4938504;29;20464;-75
2022/09/11 04:15:08;;;;;;;0.70;0.63;;;15.90;90.70;;;;;;4938899;29;20455;-75
2022/09/11 04:17:35;;;;;;;0.80;0.60;;;16.00;90.40;;;;;;4938451;29;20452;-75
2022/09/11 04:20:02;;;;;;;0.80;0.70;;;16.00;90.20;;;;;;4938380;29;20448;-75
2022/09/11 04:22:29;;;;;;;0.70;0.70;;;16.00;90.60;;;;;;4938264;29;20559;-75
2022/09/11 04:24:56;;;;;;;0.70;0.60;;;16.00;90.10;;;;;;4938233;29;20484;-75
2022/09/11 04:27:24;;;;;;;0.80;0.70;;;16.00;90.10;;;;;;4938254;29;20448;-75
2022/09/11 04:29:51;;;;;;;0.80;0.73;;;16.10;89.90;;;;;;4938214;29;20559;-75
2022/09/11 04:32:18;;;;;;;0.80;0.60;;;16.20;89.70;;;;;;4938838;29;20507;-75
2022/09/11 04:34:44;;;;;;;1.10;0.70;;;16.20;89.40;;;;;;4938112;29;20460;-75
2022/09/11 04:37:11;;;;;;;0.80;0.80;;;16.20;89.50;;;;;;4937761;29;20456;-74
2022/09/11 04:39:38;;;;;;;0.70;0.70;;;16.40;89.10;;;;;;4937716;29;20940;-75
2022/09/11 04:42:05;;;;;;;0.70;0.70;;;16.50;88.60;;;;;;4937790;29;20483;-75
2022/09/11 04:44:33;;;;;;;0.93;0.93;;;16.50;88.50;;;;;;4937042;29;20448;-75
2022/09/11 04:46:59;;;;;;;0.70;0.60;;;16.50;87.90;;;;;;4937879;29;20452;-75
2022/09/11 04:49:26;;;;;;;0.70;0.63;;;16.50;88.20;;;;;;4937868;29;20512;-75
2022/09/11 04:51:53;;;;;;;0.80;0.80;;;16.60;87.90;;;;;;4937404;29;20875;-75
2022/09/11 04:54:21;;;;;;;0.80;0.60;;;16.60;87.90;;;;;;4938540;29;20459;-76
2022/09/11 04:56:48;;;;;;;1.00;0.70;;;16.50;88.70;;;;;;4937414;29;20948;-76
2022/09/11 04:59:16;;;;;;;0.70;0.60;;;16.60;88.20;;;;;;4937675;29;20527;-76
2022/09/11 05:01:45;;;;;;;0.70;0.60;;;16.60;88.00;;;;;;4937129;29;20995;-75
2022/09/11 05:04:12;;;;;;;0.80;0.70;;;16.50;87.90;;;;;;4937264;29;20868;-76
2022/09/11 05:06:39;;;;;;;0.70;0.60;;;16.50;88.30;;;;;;4937436;29;20512;-76
2022/09/11 05:09:08;;;;;;;0.70;0.70;;;16.50;88.10;;;;;;4937483;29;20464;-75
2022/09/11 05:11:35;;;;;;;0.80;0.60;;;16.40;88.50;;;;;;4937420;29;20464;-76
2022/09/11 05:14:02;;;;;;;0.80;0.73;;;16.40;89.00;;;;;;4937602;29;20462;-76
2022/09/11 05:16:33;;;;;;;0.70;0.60;;;16.50;88.60;;;;;;4937353;29;20444;-75
2022/09/11 05:19:02;;;;;;;0.80;0.60;;;16.60;88.30;;;;;;4937302;29;20437;-76
2022/09/11 05:21:30;;;;;;;0.70;0.60;;;16.50;88.40;;;;;;4937144;29;20558;-76
2022/09/11 05:23:59;;;;;;;0.80;0.80;;;16.60;88.30;;;;;;4937177;29;20459;-76
2022/09/11 05:26:28;;;;;;;0.80;0.70;;;16.60;88.10;;;;;;4937085;29;20499;-76
2022/09/11 05:28:55;;;;;;;0.80;0.70;;;16.70;88.00;;;;;;4937410;29;20448;-76
2022/09/11 05:31:24;;;;;;;0.70;0.70;;;16.70;87.90;;;;;;4937058;29;20472;-76
2022/09/11 05:33:51;;;;;;;0.70;0.70;;;16.80;87.70;;;;;;4937034;29;20456;-75
2022/09/11 05:36:19;;;;;;;0.70;0.60;;;16.70;87.90;;;;;;4936957;29;20551;-75
2022/09/11 05:38:46;;;;;;;0.70;0.70;;;16.70;88.00;;;;;;4936948;29;20456;-76
2022/09/11 05:41:14;;;;;;;0.70;0.60;;;16.50;88.40;;;;;;4936845;29;20475;-76
2022/09/11 05:43:41;;;;;;;1.73;0.80;;;16.40;89.20;;;;;;4936612;29;20508;-75
2022/09/11 05:46:11;;;;;;;0.70;0.70;;;16.50;88.80;;;;;;4936732;29;20480;-75
2022/09/11 05:48:39;;;;;;;0.70;0.70;;;16.50;89.10;;;;;;4936805;29;20440;-75
2022/09/11 05:51:08;;;;;;;0.80;0.70;;;16.50;89.20;;;;;;4936941;29;20475;-76
2022/09/11 05:53:36;;;;;;;0.70;0.70;;;16.60;89.00;;;;;;4936676;29;20448;-76
2022/09/11 05:56:07;;;;;;;0.80;0.70;;;16.70;88.50;;;;;;4936287;29;20455;-75
2022/09/11 05:58:34;;;;;;;0.80;0.80;;;16.80;88.10;;;;;;4936598;29;20539;-76
2022/09/11 06:01:07;;;;;;;0.70;0.70;;;16.80;88.30;;;;;;4936295;29;20488;-76
2022/09/11 06:03:34;;;;;;;0.70;0.70;;;16.80;88.00;;;;;;4936290;29;20432;-75
2022/09/11 06:06:01;;;;;;;0.80;0.70;;;16.70;88.10;;;;;;4936435;29;20488;-75
2022/09/11 06:08:28;;;;;;;0.70;0.70;;;16.60;88.50;;;;;;4936452;29;21010;-75
2022/09/11 06:10:58;;;;;;;0.70;0.70;;;16.70;88.70;;;;;;4936355;29;20468;-76
2022/09/11 06:13:25;;;;;;;0.70;0.60;;;16.80;88.00;;;;;;4936432;29;20515;-76
2022/09/11 06:15:51;;;;;;;0.80;0.80;;;16.90;88.10;;;;;;4936432;29;20504;-75
2022/09/11 06:18:18;;;;;;;0.80;0.60;;;17.00;87.50;;;;;;4936373;29;20452;-75
2022/09/11 06:20:55;;;;;;;0.90;0.70;;;17.10;86.70;;;;;;4936256;29;20475;-76
2022/09/11 06:23:21;;;;;;;0.70;0.60;;;17.00;87.30;;;;;;4936314;29;20439;-76
2022/09/11 06:25:48;;;;;;;0.70;0.70;;;17.10;87.30;;;;;;4936973;29;20487;-75
2022/09/11 06:28:16;;;;;;;0.87;0.80;;;17.20;87.10;;;;;;4936257;29;20503;-76
2022/09/11 06:30:43;;;;;;;1.00;0.70;;;17.30;86.80;;;;;;4936191;29;20476;-76
2022/09/11 06:33:10;;;;;;;0.70;0.60;;;17.40;86.40;;;;;;4936164;29;20479;-76
2022/09/11 06:35:36;;;;;;;0.80;0.70;;;17.40;86.50;;;;;;4936091;29;20531;-76
2022/09/11 06:38:03;;;;;;;0.80;0.73;;;17.50;86.20;;;;;;4936143;29;20503;-76
2022/09/11 06:40:30;;;;;;;0.70;0.60;;;17.50;85.40;;;;;;4936066;29;20452;-75
2022/09/11 06:42:57;;;;;;;0.80;0.70;;;17.40;86.10;;;;;;4936114;29;20448;-76
2022/09/11 06:45:25;;;;;;;0.80;0.70;;;17.40;86.00;;;;;;4936030;29;20456;-76
2022/09/11 06:47:52;;;;;;;0.80;0.77;;;17.50;86.00;;;;;;4936242;29;20542;-75
2022/09/11 06:50:18;;;;;;;0.77;0.70;;;17.60;85.90;;;;;;4936384;29;20451;-76
2022/09/11 06:52:45;;;;;;;0.70;0.70;;;17.60;85.50;;;;;;4936009;29;20471;-76
2022/09/11 06:55:13;;;;;;;0.70;0.60;;;17.60;85.50;;;;;;4936034;29;20463;-75
2022/09/11 06:57:41;;;;;;;0.80;0.70;;;17.50;85.70;;;;;;4936043;29;20459;-75
2022/09/11 07:00:08;;;;;;;0.70;0.60;;;17.50;85.70;;;;;;4935611;29;20892;-73
2022/09/11 07:02:36;;;;;;;0.80;0.70;;;17.60;85.20;;;;;;4935563;29;20490;-73
2022/09/11 07:05:04;;;;;;;0.70;0.60;;;17.70;85.30;;;;;;4935898;29;20511;-73
2022/09/11 07:07:32;;;;;;;0.73;0.70;;;17.80;85.20;;;;;;4937388;29;20539;-73
2022/09/11 07:10:03;;;;;;;0.70;0.60;;;17.90;84.70;;;;;;4939625;29;20462;-73
2022/09/11 07:12:30;;;;;;;0.80;0.70;;;17.90;84.50;;;;;;4939585;29;20505;-73
2022/09/11 07:14:57;;;;;;;0.70;0.70;;;18.00;84.70;;;;;;4939794;29;20482;-73
2022/09/11 07:17:49;;;;;;;0.73;0.70;;;18.10;84.30;;;;;;4939685;29;20475;-75
2022/09/11 07:20:17;;;;;;;0.70;0.70;;;18.10;83.50;;;;;;4939014;29;20970;-74
2022/09/11 07:22:45;;;;;;;0.80;0.70;;;18.20;83.40;;;;;;4939046;29;20971;-74
2022/09/11 07:25:12;;;;;;;0.70;0.70;;;18.30;83.50;;;;;;4939067;29;21030;-74
2022/09/11 07:27:39;;;;;;;0.80;0.80;;;18.30;83.20;;;;;;4939254;29;20479;-74
2022/09/11 07:30:07;;;;;;;0.90;0.90;;;18.20;82.90;;;;;;4939049;29;20440;-74
2022/09/11 07:32:33;;;;;;;0.90;0.90;;;18.10;83.20;;;;;;4939180;29;20478;-73
2022/09/11 07:35:02;;;;;;;0.70;0.70;;;18.10;83.10;;;;;;4939258;29;20460;-74
2022/09/11 07:37:29;;;;;;;0.80;0.77;;;17.80;84.10;;;;;;4938855;29;20944;-73
2022/09/11 07:39:55;;;;;;;0.70;0.70;;;17.90;84.30;;;;;;4939107;29;20456;-74
2022/09/11 07:42:22;;;;;;;0.70;0.70;;;17.90;83.90;;;;;;4939070;29;20471;-74
2022/09/11 07:44:49;;;;;;;0.70;0.70;;;18.00;84.10;;;;;;4939088;29;20456;-74
2022/09/11 07:47:16;;;;;;;0.70;0.60;;;18.00;84.10;;;;;;4938932;29;20495;-74
2022/09/11 07:49:46;;;;;;;0.70;0.70;;;18.20;84.10;;;;;;4938446;29;20523;-74
2022/09/11 07:52:14;;;;;;;0.90;0.70;;;18.10;83.60;;;;;;4938968;29;20479;-74
2022/09/11 07:54:41;;;;;;;0.80;0.70;;;18.00;84.10;;;;;;4938417;29;20530;-74
2022/09/11 07:57:08;;;;;;;1.00;0.70;;;18.10;83.90;;;;;;4938300;29;20460;-73
2022/09/11 07:59:35;;;;;;;0.70;0.70;;;18.10;83.80;;;;;;4939248;29;20856;-74
2022/09/11 08:02:01;;;;;;;1.00;0.70;;;18.10;83.80;;;;;;4938106;29;20479;-74
2022/09/11 08:04:28;;;;;;;1.57;1.00;;;18.30;83.30;;;;;;4938479;29;20460;-74
2022/09/11 08:06:55;;;;;;;0.80;0.80;;;18.50;83.10;;;;;;4938104;29;20574;-74
2022/09/11 08:09:26;;;;;;;0.97;0.93;;;18.60;81.30;;;;;;4938613;29;20453;-74
2022/09/11 08:11:57;;;;;;;0.80;0.80;;;18.60;81.50;;;;;;4938523;29;20472;-75
2022/09/11 08:14:24;;;;;;;0.97;0.70;;;18.80;80.90;;;;;;4938607;29;20440;-74
2022/09/11 08:16:52;;;;;;;0.80;0.80;;;18.90;80.80;;;;;;4938626;29;20448;-75
2022/09/11 08:19:20;;;;;;;0.90;0.80;;;19.10;80.40;;;;;;4937344;29;20463;-75
2022/09/11 08:21:47;;;;;;;0.80;0.80;;;19.20;80.50;;;;;;4938523;29;20480;-76
2022/09/11 08:24:15;;;;;;;0.90;0.90;;;19.10;79.90;;;;;;4938398;29;20539;-77
2022/09/11 08:26:44;;;;;;;0.80;0.80;;;19.10;79.00;;;;;;4938318;29;20495;-76
2022/09/11 08:29:11;;;;;;;0.70;0.70;;;19.10;79.30;;;;;;4938254;29;20539;-76
2022/09/11 08:31:37;;;;;;;0.80;0.80;;;19.20;79.70;;;;;;4938226;29;20471;-75
2022/09/11 08:34:04;;;;;;;0.80;0.80;;;19.20;79.10;;;;;;4938096;29;20456;-77
2022/09/11 08:36:31;;;;;;;0.77;0.77;;;19.20;79.60;;;;;;4938424;29;20452;-77
2022/09/11 08:39:00;;;;;;;0.80;0.70;;;19.20;79.10;;;;;;4938136;29;20487;-75
2022/09/11 08:41:34;;;;;;;1.07;0.97;;;19.30;78.90;;;;;;4937914;29;20508;-76
2022/09/11 08:44:07;;;;;;;0.70;0.70;;;19.40;78.40;;;;;;4937938;29;20939;-76
2022/09/11 08:46:51;;;;;;;0.83;0.83;;;19.40;78.40;;;;;;4938237;29;21015;-76
2022/09/11 08:49:23;;;;;;;0.70;0.70;;;19.60;78.70;;;;;;4937942;29;20444;-77
2022/09/11 08:51:50;;;;;;;0.73;0.73;;;19.70;76.90;;;;;;4937563;29;20983;-77
2022/09/11 08:54:26;;;;;;;0.70;0.70;;;20.00;77.90;;;;;;4937828;29;20451;-75
2022/09/11 08:56:55;;;;;;;1.10;0.90;;;20.40;76.70;;;;;;4937572;29;20428;-76
2022/09/11 08:59:33;;;;;;;0.70;0.70;;;20.70;74.50;;;;;;4937883;29;20862;-76
2022/09/11 09:02:17;;;;;;;0.80;0.70;;;20.90;73.20;;;;;;4937578;29;20511;-76
2022/09/11 09:05:02;;;;;;;0.70;0.67;;;21.00;72.80;;;;;;4937588;29;20444;-76
2022/09/11 09:07:41;;;;;;;0.80;0.70;;;21.20;72.70;;;;;;4937801;29;20463;-77
2022/09/11 09:10:14;;;;;;;0.83;0.70;;;21.20;70.90;;;;;;4937895;29;20448;-77
2022/09/11 09:12:49;;;;;;;0.73;0.67;;;21.50;71.50;;;;;;4937518;29;20483;-77
2022/09/11 09:15:24;;;;;;;0.80;0.80;;;21.80;71.10;;;;;;4938729;29;20935;-77
2022/09/11 09:17:59;;;;;;;0.80;0.80;;;21.80;69.80;;;;;;4937398;29;20447;-77
2022/09/11 09:20:31;;;;;;;0.70;0.70;;;21.70;69.60;;;;;;4937349;29;20526;-76
2022/09/11 09:23:02;;;;;;;0.80;0.60;;;21.70;69.90;;;;;;4937868;29;20464;-76
2022/09/11 09:25:30;;;;;;;0.70;0.67;;;21.80;70.00;;;;;;4939762;29;20520;-77
2022/09/11 09:28:04;;;;;;;0.80;0.70;;;21.80;69.80;;;;;;4938820;29;20861;-76
2022/09/11 09:30:44;;;;;;;0.70;0.63;;;21.80;68.70;;;;;;4936723;29;20968;-76
2022/09/11 09:33:30;;;;;;;0.80;0.70;;;21.70;69.40;;;;;;4937468;29;20463;-77
2022/09/11 09:35:59;;;;;;;1.00;0.70;;;21.40;70.20;;;;;;4937027;29;20468;-77
2022/09/11 09:38:29;;;;;;;0.70;0.60;;;21.50;70.30;;;;;;4936581;29;20939;-76
2022/09/11 09:41:22;;;;;;;0.70;0.60;;;21.40;70.20;;;;;;4936748;29;20484;-77
2022/09/11 09:43:59;;;;;;;0.70;0.70;;;21.40;69.40;;;;;;4936689;29;20884;-77
2022/09/11 09:46:31;;;;;;;0.70;0.70;;;21.50;68.60;;;;;;4936821;29;20566;-77
2022/09/11 09:48:58;;;;;;;0.80;0.80;;;21.30;69.30;;;;;;4936878;29;20515;-77
2022/09/11 09:51:25;;;;;;;0.80;0.80;;;21.30;69.20;;;;;;4936814;29;20549;-78
2022/09/11 09:53:56;;;;;;;0.90;0.80;;;21.30;69.10;;;;;;4936927;29;20498;-78
2022/09/11 09:56:25;;;;;;;0.77;0.77;;;21.10;69.80;;;;;;4937146;29;20444;-79
2022/09/11 09:58:59;;;;;;;0.70;0.70;;;21.00;71.20;;;;;;4937427;29;20507;-79
2022/09/11 10:01:49;;;;;;;0.70;0.70;;;21.00;70.80;;;;;;4936811;29;20573;-76
2022/09/11 10:04:19;;;;;;;0.70;0.70;;;21.00;71.20;;;;;;4936742;29;20450;-77
2022/09/11 10:06:48;;;;;;;0.80;0.80;;;20.90;70.90;;;;;;4936182;29;21003;-77
2022/09/11 10:09:20;;;;;;;0.80;0.70;;;21.00;71.00;;;;;;4936598;29;20460;-77
2022/09/11 10:11:52;;;;;;;0.77;0.70;;;21.20;71.60;;;;;;4936264;29;20980;-77
2022/09/11 10:14:21;;;;;;;0.90;0.90;;;21.40;70.50;;;;;;4936151;29;20437;-77
2022/09/11 10:16:50;;;;;;;0.80;0.80;;;21.50;68.60;;;;;;4936371;29;20455;-76
2022/09/11 10:19:36;;;;;;;0.70;0.70;;;21.20;68.60;;;;;;4935912;29;20852;-76
2022/09/11 10:22:23;;;;;;;1.53;0.80;;;21.30;69.20;;;;;;4935900;29;20522;-77
2022/09/11 10:24:58;;;;;;;0.80;0.80;;;21.40;70.00;;;;;;4936293;29;20504;-77
2022/09/11 10:27:26;;;;;;;0.80;0.80;;;21.50;70.00;;;;;;4936794;29;20502;-75
2022/09/11 10:29:54;;;;;;;0.80;0.70;;;21.50;68.90;;;;;;4936211;29;20817;-76
2022/09/11 10:32:23;;;;;;;0.80;0.80;;;21.50;69.40;;;;;;4935868;29;21035;-75
2022/09/11 10:34:51;;;;;;;0.87;0.87;;;21.40;69.60;;;;;;4936195;29;20478;-76
2022/09/11 10:37:24;;;;;;;0.70;0.70;;;21.40;69.30;;;;;;4936241;29;20451;-76
2022/09/11 10:39:52;;;;;;;0.90;0.90;;;21.30;69.40;;;;;;4936220;29;20436;-77
2022/09/11 10:42:24;;;;;;;0.80;0.77;;;21.40;69.70;;;;;;4937407;29;20491;-76
2022/09/11 10:44:53;;;;;;;0.70;0.70;;;21.40;69.70;;;;;;4940123;29;20471;-78
2022/09/11 10:47:25;;;;;;;0.90;0.90;;;21.40;68.90;;;;;;4940012;29;20488;-78
2022/09/11 10:50:18;;;;;;;0.87;0.87;;;21.40;68.90;;;;;;4939785;29;20935;-77
2022/09/11 10:52:49;;;;;;;0.80;0.80;;;21.50;69.00;;;;;;4940214;29;20513;-78
2022/09/11 10:55:17;;;;;;;0.90;0.80;;;21.70;69.20;;;;;;4939960;29;20448;-76
2022/09/11 10:57:46;;;;;;;0.80;0.80;;;22.00;68.80;;;;;;4939695;29;20456;-76
2022/09/11 11:00:18;;;;;;;1.63;0.90;;;22.20;67.00;;;;;;4940595;29;20455;-76
2022/09/11 11:02:50;;;;;;;0.70;0.70;;;22.00;66.50;;;;;;4940651;29;20574;-77
2022/09/11 11:05:23;;;;;;;0.70;0.60;;;22.20;65.80;;;;;;4941536;29;20542;-75
2022/09/11 11:08:12;;;;;;;0.70;0.70;;;22.40;65.10;;;;;;4941149;29;20567;-75
2022/09/11 11:10:50;;;;;;;0.80;0.80;;;22.80;64.90;;;;;;4941290;29;20878;-76
2022/09/11 11:13:31;;;;;;;0.80;0.80;;;23.00;64.10;;;;;;4942225;29;20432;-76
2022/09/11 11:16:12;;;;;;;0.70;0.70;;;23.00;64.00;;;;;;4939650;29;20549;-76
2022/09/11 11:19:00;;;;;;;0.70;0.67;;;22.70;64.90;;;;;;4939247;29;20912;-76
2022/09/11 11:21:39;;;;;;;0.80;0.70;;;22.70;64.60;;;;;;4939458;29;20571;-76
2022/09/11 11:24:28;;;;;;;1.00;0.70;;;22.80;65.60;;;;;;4939475;29;20434;-76
2022/09/11 11:27:09;;;;;;;0.80;0.77;;;22.70;64.60;;;;;;4939302;29;20491;-76
2022/09/11 11:30:01;;;;;;;0.70;0.70;;;22.60;65.10;;;;;;4939360;29;20448;-76
2022/09/11 11:32:47;;;;;;;0.70;0.70;;;22.40;64.90;;;;;;4932657;29;20531;-76
2022/09/11 11:35:22;;;;;;;0.70;0.70;;;22.20;65.50;;;;;;4938971;29;20950;-76
2022/09/11 11:37:53;;;;;;;0.70;0.60;;;22.10;65.60;;;;;;4939182;29;20486;-75
2022/09/11 11:40:27;;;;;;;0.87;0.87;;;22.00;67.10;;;;;;4939204;29;20428;-76
2022/09/11 11:43:00;;;;;;;0.70;0.70;;;22.00;67.00;;;;;;4939127;29;20459;-76
2022/09/11 11:45:31;;;;;;;1.00;0.90;;;22.40;66.60;;;;;;4939214;29;20491;-76
2022/09/11 11:48:01;;;;;;;0.90;0.90;;;22.50;66.40;;;;;;4938987;29;20476;-76
2022/09/11 11:50:37;;;;;;;0.80;0.80;;;22.70;65.90;;;;;;4938760;29;20511;-76
2022/09/11 11:53:11;;;;;;;0.70;0.60;;;22.80;64.70;;;;;;4938723;29;20467;-76
2022/09/11 11:55:50;;;;;;;0.70;0.70;;;22.80;64.90;;;;;;4939426;29;20441;-76
2022/09/11 11:58:28;;;;;;;0.70;0.60;;;22.70;64.80;;;;;;4938934;29;20523;-76
2022/09/11 12:01:00;;;;;;;0.70;0.70;;;22.80;64.90;;;;;;4938560;29;20479;-76
2022/09/11 12:03:32;;;;;;;0.70;0.70;;;22.90;65.00;;;;;;4938605;29;20931;-76
2022/09/11 12:06:01;;;;;;;0.80;0.80;;;22.80;65.60;;;;;;4938459;29;20929;-76
2022/09/11 12:08:28;;;;;;;1.00;0.90;;;22.70;64.90;;;;;;4938233;29;20944;-76
2022/09/11 12:10:58;;;;;;;0.70;0.70;;;22.00;66.60;;;;;;4938564;29;20474;-76
2022/09/11 12:13:31;;;;;;;0.70;0.60;;;21.90;66.40;;;;;;4938560;29;20455;-76
2022/09/11 12:16:02;;;;;;;0.70;0.70;;;21.70;67.00;;;;;;4938708;29;20440;-76
2022/09/11 12:18:29;;;;;;;0.70;0.70;;;21.80;68.00;;;;;;4938584;29;20544;-76
2022/09/11 12:21:35;;;;;;;0.80;0.80;;;21.80;67.90;;;;;;4938333;29;20472;-76
2022/09/11 12:24:18;;;;;;;0.70;0.70;;;21.90;68.20;;;;;;4938411;29;20459;-76
2022/09/11 12:26:45;;;;;;;0.70;0.70;;;21.90;67.70;;;;;;4936897;29;20485;-75
2022/09/11 12:29:52;;;;;;;0.80;0.80;;;22.10;67.20;;;;;;4938193;29;20515;-76
2022/09/11 12:32:41;;;;;;;0.70;0.67;;;22.20;66.30;;;;;;4909393;29;20527;-76
2022/09/11 12:35:33;;;;;;;1.00;0.90;;;22.40;65.70;;;;;;4937851;29;20821;-76
2022/09/11 12:38:17;;;;;;;0.70;0.70;;;22.60;64.70;;;;;;4937795;29;20926;-76
2022/09/11 12:40:52;;;;;;;1.03;0.70;;;22.80;64.70;;;;;;4938034;29;20479;-76
2022/09/11 12:43:45;;;;;;;0.70;0.70;;;22.80;63.80;;;;;;4938055;29;20539;-76
2022/09/11 12:46:33;;;;;;;0.70;0.63;;;22.70;65.00;;;;;;4938003;29;20444;-76
2022/09/11 12:49:08;;;;;;;0.80;0.70;;;22.80;64.20;;;;;;4937502;29;20587;-76
2022/09/11 12:51:37;;;;;;;0.70;0.60;;;23.00;63.90;;;;;;4937802;29;20475;-76
2022/09/11 12:54:13;;;;;;;0.70;0.70;;;22.90;63.90;;;;;;4937797;29;20452;-76
2022/09/11 12:56:47;;;;;;;0.90;0.73;;;22.70;63.10;;;;;;4938143;29;20435;-80
2022/09/11 12:59:23;;;;;;;0.70;0.70;;;22.70;63.80;;;;;;4940185;29;20451;-80
2022/09/11 13:01:50;;;;;;;0.77;0.67;;;22.80;64.00;;;;;;4939962;29;20491;-80
2022/09/11 13:04:21;;;;;;;0.70;0.60;;;22.80;65.00;;;;;;4940073;29;20504;-80
2022/09/11 13:06:51;;;;;;;0.70;0.70;;;22.80;65.50;;;;;;4940434;29;20448;-80
2022/09/11 13:09:22;;;;;;;0.70;0.70;;;22.80;63.80;;;;;;4940210;29;20472;-80
2022/09/11 13:11:51;;;;;;;0.70;0.70;;;22.90;63.30;;;;;;4939795;29;20472;-79
2022/09/11 13:14:47;;;;;;;0.90;0.70;;;22.70;64.40;;;;;;4937450;29;20481;-79
2022/09/11 13:17:17;;;;;;;0.70;0.70;;;22.70;65.30;;;;;;4937428;29;20542;-78
2022/09/11 13:19:44;;;;;;;0.70;0.67;;;22.70;64.40;;;;;;4937598;29;20515;-78
2022/09/11 13:22:27;;;;;;;0.70;0.70;;;22.70;64.80;;;;;;4937577;29;21007;-78
2022/09/11 13:25:06;;;;;;;0.70;0.70;;;22.80;65.30;;;;;;4937599;29;20531;-79
2022/09/11 13:27:36;;;;;;;0.80;0.80;;;22.90;64.20;;;;;;4937541;29;20436;-79
2022/09/11 13:30:03;;;;;;;0.80;0.70;;;23.00;65.50;;;;;;4937294;29;20980;-78
2022/09/11 13:32:30;;;;;;;0.70;0.60;;;23.10;64.60;;;;;;4937024;29;20472;-79
2022/09/11 13:35:09;;;;;;;0.80;0.80;;;23.10;65.60;;;;;;4937089;29;20451;-78
2022/09/11 13:37:39;;;;;;;0.70;0.70;;;22.90;65.10;;;;;;4937018;29;20447;-77
2022/09/11 13:40:18;;;;;;;0.80;0.70;;;22.90;65.10;;;;;;4937015;29;20515;-77
2022/09/11 13:42:45;;;;;;;0.80;0.80;;;23.10;65.50;;;;;;4936884;29;20476;-78
2022/09/11 13:45:16;;;;;;;0.70;0.70;;;23.10;65.00;;;;;;4936890;29;20448;-78
2022/09/11 13:47:42;;;;;;;0.80;0.73;;;23.10;65.20;;;;;;4936848;29;20522;-77
2022/09/11 13:50:12;;;;;;;0.70;0.70;;;23.30;64.60;;;;;;4936800;29;20507;-77
2022/09/11 13:52:41;;;;;;;0.70;0.63;;;23.50;62.50;;;;;;4936989;29;20472;-77
2022/09/11 13:55:18;;;;;;;0.80;0.70;;;23.60;62.80;;;;;;4936754;29;20455;-77
2022/09/11 13:57:52;;;;;;;0.70;0.70;;;23.70;62.90;;;;;;4936773;29;20444;-78
2022/09/11 14:00:41;;;;;;;0.70;0.70;;;23.90;62.10;;;;;;4936821;29;20487;-78
2022/09/11 14:03:19;;;;;;;0.80;0.70;;;23.80;61.30;;;;;;4936707;29;20467;-78
2022/09/11 14:05:52;;;;;;;0.70;0.60;;;23.90;62.00;;;;;;4936903;29;20432;-78
2022/09/11 14:08:22;;;;;;;0.70;0.67;;;23.90;61.70;;;;;;4936547;29;20475;-78
2022/09/11 14:10:53;;;;;;;0.80;0.70;;;23.90;61.30;;;;;;4937518;29;20472;-78
2022/09/11 14:13:26;;;;;;;0.90;0.80;;;23.90;61.40;;;;;;4936668;29;20495;-78
2022/09/11 14:15:55;;;;;;;0.70;0.60;;;23.90;61.10;;;;;;4936629;29;20628;-78
2022/09/11 14:18:29;;;;;;;0.80;0.80;;;24.10;61.40;;;;;;4936359;29;20448;-77
2022/09/11 14:20:58;;;;;;;0.80;0.80;;;24.20;61.00;;;;;;4936407;29;20535;-77
2022/09/11 14:23:27;;;;;;;0.70;0.60;;;24.40;61.90;;;;;;4936420;29;20543;-78
2022/09/11 14:26:13;;;;;;;0.70;0.70;;;24.50;60.70;;;;;;4936448;29;20503;-74
2022/09/11 14:28:59;;;;;;;0.80;0.70;;;24.80;61.00;;;;;;4936716;29;20490;-75
2022/09/11 14:31:34;;;;;;;0.77;0.77;;;26.30;57.50;;;;;;4936305;29;20468;-74
2022/09/11 14:34:12;;;;;;;0.70;0.70;;;28.20;53.40;;;;;;4936247;29;20452;-75
2022/09/11 14:36:42;;;;;;;0.70;0.60;;;29.40;49.30;;;;;;4935906;29;20455;-74
2022/09/11 14:39:13;;;;;;;0.77;0.70;;;30.20;48.50;;;;;;4936260;29;20432;-74
2022/09/11 14:41:43;;;;;;;0.70;0.60;;;31.40;46.60;;;;;;4936157;29;20484;-75
2022/09/11 14:44:12;;;;;;;0.70;0.70;;;32.30;45.20;;;;;;4936098;29;20456;-75
2022/09/11 14:46:39;;;;;;;0.70;0.60;;;33.00;43.50;;;;;;4936139;29;20456;-76
2022/09/11 14:49:08;;;;;;;0.87;0.60;;;33.20;43.50;;;;;;4936048;29;20484;-75
2022/09/11 14:51:36;;;;;;;0.80;0.60;;;32.60;44.00;;;;;;4935992;29;20495;-76
2022/09/11 14:54:02;;;;;;;0.70;0.60;;;31.00;45.60;;;;;;4936139;29;20448;-75
2022/09/11 14:56:29;;;;;;;0.80;0.70;;;29.70;48.30;;;;;;4936040;29;20452;-75
2022/09/11 14:58:57;;;;;;;0.70;0.60;;;30.20;47.90;;;;;;4936019;29;20448;-75
2022/09/11 15:01:25;;;;;;;0.73;0.60;;;30.00;47.60;;;;;;4935786;29;20500;-75
2022/09/11 15:03:53;;;;;;;0.70;0.60;;;29.70;48.10;;;;;;4935990;29;20511;-75
2022/09/11 15:06:20;;;;;;;0.70;0.60;;;29.10;49.70;;;;;;4936196;29;20452;-75
2022/09/11 15:08:47;;;;;;;0.70;0.70;;;28.50;50.10;;;;;;4935829;29;20527;-76
2022/09/11 15:11:15;;;;;;;0.70;0.67;;;27.80;51.50;;;;;;4935575;29;20951;-75
2022/09/11 15:13:43;;;;;;;0.70;0.60;;;27.40;52.60;;;;;;4935768;29;20522;-75
2022/09/11 15:16:11;;;;;;;0.70;0.60;;;27.00;53.70;;;;;;4937062;29;20535;-76
2022/09/11 15:18:40;;;;;;;0.70;0.60;;;26.60;54.20;;;;;;4935829;29;20526;-76
2022/09/11 15:21:07;;;;;;;0.70;0.70;;;26.30;55.40;;;;;;4935711;29;20471;-75
2022/09/11 15:23:34;;;;;;;0.70;0.70;;;25.90;55.90;;;;;;4935828;29;20890;-75
2022/09/11 15:26:01;;;;;;;0.70;0.70;;;25.60;56.70;;;;;;4935759;29;20530;-75
2022/09/11 15:28:29;;;;;;;0.80;0.70;;;25.10;56.80;;;;;;4937072;29;20676;-75
2022/09/11 15:30:57;;;;;;;0.80;0.80;;;24.70;58.10;;;;;;4939268;29;20503;-76
2022/09/11 15:33:26;;;;;;;0.70;0.70;;;24.50;60.10;;;;;;4939283;29;20503;-77
2022/09/11 15:35:55;;;;;;;0.70;0.70;;;24.10;59.50;;;;;;4938927;29;20539;-77
2022/09/11 15:38:22;;;;;;;0.70;0.70;;;23.70;59.70;;;;;;4939602;29;20460;-77
2022/09/11 15:40:55;;;;;;;0.80;0.70;;;23.70;60.60;;;;;;4939328;29;20481;-77
2022/09/11 15:43:22;;;;;;;0.90;0.80;;;23.90;60.20;;;;;;4939625;29;20503;-77
2022/09/11 15:45:49;;;;;;;0.70;0.60;;;23.80;60.20;;;;;;4938920;29;20514;-77
2022/09/11 15:48:17;;;;;;;0.70;0.60;;;23.70;58.90;;;;;;4938892;29;20451;-77
2022/09/11 15:50:45;;;;;;;0.70;0.70;;;23.60;59.20;;;;;;4939532;29;22086;-77
2022/09/11 15:53:12;;;;;;;0.80;0.80;;;23.60;59.70;;;;;;4939089;29;20483;-77
2022/09/11 15:55:39;;;;;;;0.70;0.60;;;23.60;59.60;;;;;;4939303;29;20535;-77
2022/09/11 15:58:06;;;;;;;1.20;0.70;;;23.60;60.10;;;;;;4939108;29;20488;-77
2022/09/11 16:00:35;;;;;;;0.80;0.70;;;23.60;59.70;;;;;;4939421;29;20448;-77
2022/09/11 16:03:02;;;;;;;0.70;0.67;;;23.50;60.70;;;;;;4939298;29;20459;-77
2022/09/11 16:05:31;;;;;;;0.70;0.70;;;23.40;61.00;;;;;;4939292;29;20455;-77
2022/09/11 16:07:59;;;;;;;0.70;0.70;;;23.30;61.30;;;;;;4938816;29;20551;-77